Time;durP1;ratioP1;P1;durP2;ratioP2;P2;SDS_P1;SDS_P2;PMS_P1;PMS_P2;Temp;Humidity;BMP_temperature;BMP_pressure;BME280_temperature;BME280_humidity;BME280_pressure;Samples;Min_cycle;Max_cycle;Signal;HPM_P1;HPM_P2
2021/07/25 00:02:26;;;;;;;14.10;11.33;;;;;;;22.00;48.14;99963.98;126638;1089;114768;-79
2021/07/25 00:05:15;;;;;;;13.73;10.40;;;;;;;22.02;48.50;99962.88;126742;1089;103019;-79
2021/07/25 00:08:03;;;;;;;13.90;11.20;;;;;;;22.04;48.14;99962.75;126533;1090;114649;-79
2021/07/25 00:10:51;;;;;;;14.23;11.60;;;;;;;22.04;48.50;99957.44;126556;1090;102867;-78
2021/07/25 00:13:40;;;;;;;13.50;10.90;;;;;;;22.05;48.90;99956.50;126580;1089;114502;-78
2021/07/25 00:16:29;;;;;;;16.67;11.27;;;;;;;22.04;48.47;99957.44;126695;1090;103409;-79
2021/07/25 00:19:17;;;;;;;13.93;10.97;;;;;;;22.02;49.06;99956.73;126606;1090;102919;-79
2021/07/25 00:22:05;;;;;;;14.77;11.10;;;;;;;22.00;49.02;99959.52;126614;1090;114175;-79
2021/07/25 00:25:07;;;;;;;12.60;10.90;;;;;;;21.97;48.66;99953.63;126714;1089;102839;-78
2021/07/25 00:27:56;;;;;;;14.47;11.73;;;;;;;21.97;48.94;99953.63;126564;1090;114454;-78
2021/07/25 00:30:45;;;;;;;14.80;10.97;;;;;;;21.95;49.24;99937.83;126669;1090;102916;-78
2021/07/25 00:33:33;;;;;;;15.60;11.20;;;;;;;21.94;48.63;99941.45;126624;1088;114403;-79
2021/07/25 00:36:21;;;;;;;13.23;11.73;;;;;;;21.89;48.69;99940.98;126626;1089;103014;-78
2021/07/25 00:39:10;;;;;;;13.60;11.10;;;;;;;21.86;48.73;99935.93;126482;1089;114537;-79
2021/07/25 00:41:58;;;;;;;16.53;11.73;;;;;;;21.83;49.06;99932.70;126833;1089;102936;-79
2021/07/25 00:44:46;;;;;;;13.30;11.60;;;;;;;21.79;49.00;99928.63;126716;1089;113211;-79
2021/07/25 00:47:37;;;;;;;13.27;11.37;;;;;;;21.75;49.40;99929.86;126720;1090;102880;-79
2021/07/25 00:50:26;;;;;;;15.67;12.10;;;;;;;21.69;49.77;99926.72;126509;1090;114818;-79
2021/07/25 00:53:14;;;;;;;15.70;11.83;;;;;;;21.62;49.36;99930.87;126660;1088;103016;-79
2021/07/25 00:56:04;;;;;;;13.70;11.60;;;;;;;21.54;49.87;99921.84;126634;1090;114671;-79
2021/07/25 00:58:52;;;;;;;14.90;12.33;;;;;;;21.48;49.93;99928.51;126600;1090;102845;-79
2021/07/25 01:01:41;;;;;;;16.37;12.23;;;;;;;21.42;49.58;99923.72;126781;1089;113364;-78
2021/07/25 01:04:51;;;;;;;17.70;12.50;;;;;;;21.38;50.10;99923.13;126779;1090;103010;-79
2021/07/25 01:08:14;;;;;;;13.67;11.87;;;;;;;21.32;49.75;99917.47;126629;1090;101746;-79
2021/07/25 01:11:05;;;;;;;18.67;12.20;;;;;;;21.27;50.45;99914.36;126237;1091;103107;-78
2021/07/25 01:13:58;;;;;;;16.70;11.93;;;;;;;21.22;50.11;99908.56;126179;1093;102900;-79
2021/07/25 01:16:46;;;;;;;21.83;16.00;;;;;;;21.19;50.39;99916.78;126071;1092;114179;-79
2021/07/25 01:19:33;;;;;;;;;;;;;;;21.17;50.41;99908.91;126204;1093;103025;-79
2021/07/25 01:22:21;;;;;;;14.70;12.07;;;;;;;21.13;49.66;99913.63;126057;1092;103240;-79
2021/07/25 01:25:13;;;;;;;18.37;12.07;;;;;;;21.11;50.26;99914.73;126299;1092;102874;-79
2021/07/25 01:28:08;;;;;;;19.27;12.37;;;;;;;21.10;50.27;99918.34;126102;1092;114388;-78
2021/07/25 01:30:59;;;;;;;12.43;11.03;;;;;;;21.09;50.20;99916.66;126312;1093;102984;-79
2021/07/25 01:33:49;;;;;;;19.07;12.60;;;;;;;21.08;50.39;99912.33;126163;1092;113401;-79
2021/07/25 01:36:39;;;;;;;15.63;12.13;;;;;;;21.05;50.35;99916.08;126206;1093;103023;-79
2021/07/25 01:39:27;;;;;;;15.47;11.47;;;;;;;21.06;50.62;99922.22;126102;1092;114530;-79
2021/07/25 01:42:32;;;;;;;14.73;11.87;;;;;;;21.04;50.51;99925.00;126275;1093;102866;-79
2021/07/25 01:45:20;;;;;;;13.27;11.63;;;;;;;21.00;50.54;99920.05;126454;1093;113392;-79
2021/07/25 01:48:08;;;;;;;15.90;12.43;;;;;;;20.99;50.48;99918.36;126648;1090;102884;-79
2021/07/25 01:50:56;;;;;;;13.80;10.97;;;;;;;20.96;50.27;99918.61;126505;1090;113461;-79
2021/07/25 01:53:44;;;;;;;14.53;11.30;;;;;;;20.93;50.44;99909.10;126650;1089;102895;-79
2021/07/25 01:56:32;;;;;;;14.43;11.83;;;;;;;20.91;50.59;99911.03;126662;1090;114417;-79
2021/07/25 01:59:20;;;;;;;14.60;11.80;;;;;;;20.89;50.82;99899.72;126599;1090;102964;-79
2021/07/25 02:02:08;;;;;;;15.20;11.83;;;;;;;20.88;50.79;99903.34;126701;1089;102939;-79
2021/07/25 02:04:56;;;;;;;14.17;11.07;;;;;;;20.85;51.09;99900.94;126588;1090;114493;-79
2021/07/25 02:07:44;;;;;;;16.37;11.93;;;;;;;20.81;51.15;99891.52;126611;1088;102928;-78
2021/07/25 02:10:32;;;;;;;14.53;11.43;;;;;;;20.78;51.31;99889.96;126592;1090;113206;-78
2021/07/25 02:13:22;;;;;;;15.20;11.80;;;;;;;20.75;51.40;99886.72;126816;1090;102936;-79
2021/07/25 02:16:10;;;;;;;14.13;11.27;;;;;;;20.72;51.47;99886.97;126614;1090;114293;-79
2021/07/25 02:18:58;;;;;;;15.77;10.90;;;;;;;20.69;51.81;99880.11;126608;1089;103084;-79
2021/07/25 02:21:46;;;;;;;16.57;11.57;;;;;;;20.66;51.66;99887.47;126755;1090;114259;-79
2021/07/25 02:24:34;;;;;;;13.50;11.13;;;;;;;20.63;51.62;99890.34;126599;1089;102788;-79
2021/07/25 02:27:22;;;;;;;14.60;11.53;;;;;;;20.59;52.03;99900.34;126537;1090;114272;-79
2021/07/25 02:30:10;;;;;;;15.83;12.07;;;;;;;20.56;51.85;99889.99;126645;1089;102885;-79
2021/07/25 02:32:58;;;;;;;13.87;11.40;;;;;;;20.51;52.06;99874.47;126536;1089;114358;-79
2021/07/25 02:35:46;;;;;;;14.53;11.43;;;;;;;20.48;52.66;99874.72;126633;1089;103559;-79
2021/07/25 02:38:33;;;;;;;19.97;12.20;;;;;;;20.46;52.60;99883.72;126677;1090;114669;-79
2021/07/25 02:41:21;;;;;;;13.97;11.20;;;;;;;20.41;52.90;99881.44;126669;1090;102893;-79
2021/07/25 02:44:09;;;;;;;13.83;11.70;;;;;;;20.38;52.89;99878.16;126597;1090;102890;-79
2021/07/25 02:46:56;;;;;;;13.60;11.43;;;;;;;20.36;53.15;99874.80;126573;1090;114507;-79
2021/07/25 02:49:44;;;;;;;13.03;11.00;;;;;;;20.32;53.22;99870.72;126785;1090;102919;-79
2021/07/25 02:52:33;;;;;;;14.13;11.50;;;;;;;20.30;53.22;99869.99;126689;1089;114459;-79
2021/07/25 02:55:21;;;;;;;13.73;11.87;;;;;;;20.27;53.71;99873.70;126768;1089;102855;-79
2021/07/25 02:58:08;;;;;;;13.10;11.67;;;;;;;20.25;53.71;99875.63;126472;1090;114507;-79
2021/07/25 03:00:56;;;;;;;14.63;12.00;;;;;;;20.21;53.84;99879.48;126698;1089;102849;-79
2021/07/25 03:03:44;;;;;;;14.85;11.60;;;;;;;20.19;53.58;99884.91;126561;1090;114365;-79
2021/07/25 03:06:32;;;;;;;;;;;;;;;20.20;53.93;99877.80;126854;1090;102920;-79
2021/07/25 03:09:20;;;;;;;13.73;11.35;;;;;;;20.19;54.41;99881.41;126674;1089;105083;-79
2021/07/25 03:12:08;;;;;;;14.23;11.73;;;;;;;20.17;54.36;99880.69;126871;1089;102892;-79
2021/07/25 03:14:56;;;;;;;15.70;11.37;;;;;;;20.16;54.55;99887.80;126491;1090;114510;-79
2021/07/25 03:17:44;;;;;;;13.10;11.60;;;;;;;20.16;54.94;99884.30;126727;1090;102836;-79
2021/07/25 03:20:32;;;;;;;14.00;11.73;;;;;;;20.15;54.83;99885.27;126702;1090;103319;-79
2021/07/25 03:23:20;;;;;;;15.37;11.17;;;;;;;20.15;54.76;99882.62;126732;1088;100380;-79
2021/07/25 03:26:08;;;;;;;13.33;11.43;;;;;;;20.16;55.34;99892.25;126593;1088;102836;-79
2021/07/25 03:28:55;;;;;;;;;;;;;;;20.18;55.08;99896.45;126571;1090;113134;-79
2021/07/25 03:31:43;;;;;;;13.93;10.23;;;;;;;20.21;55.06;99898.86;126588;1090;102852;-78
2021/07/25 03:34:32;;;;;;;15.27;11.90;;;;;;;20.25;54.83;99893.32;126577;1090;113943;-78
2021/07/25 03:37:20;;;;;;;15.60;11.83;;;;;;;20.29;54.97;99890.34;126790;1089;102937;-78
2021/07/25 03:40:13;;;;;;;13.17;11.07;;;;;;;20.33;54.73;99890.94;126512;1090;114701;-81
2021/07/25 03:43:03;;;;;;;17.13;11.53;;;;;;;20.35;55.23;99892.50;126605;1088;102650;-80
2021/07/25 03:45:50;;;;;;;14.43;11.20;;;;;;;20.38;54.72;99896.70;126528;1089;114296;-79
2021/07/25 03:48:38;;;;;;;15.13;11.40;;;;;;;20.38;54.90;99900.20;126710;1090;102892;-79
2021/07/25 03:51:26;;;;;;;15.87;11.60;;;;;;;20.42;55.14;99900.83;126599;1090;113513;-79
2021/07/25 03:54:15;;;;;;;13.03;11.37;;;;;;;20.44;54.95;99898.89;126657;1088;101195;-79
2021/07/25 03:57:04;;;;;;;16.87;12.63;;;;;;;20.45;55.06;99904.08;126446;1090;113356;-79
2021/07/25 03:59:53;;;;;;;13.97;11.13;;;;;;;20.47;54.99;99904.82;126722;1090;102833;-79
2021/07/25 04:02:41;;;;;;;14.60;11.15;;;;;;;20.52;55.01;99907.10;126864;1089;102955;-79
2021/07/25 04:05:30;;;;;;;12.57;11.00;;;;;;;20.57;54.82;99909.38;126657;1089;114549;-79
2021/07/25 04:08:17;;;;;;;13.40;11.63;;;;;;;20.62;55.05;99917.80;126831;1090;102906;-79
2021/07/25 04:11:05;;;;;;;14.60;11.77;;;;;;;20.67;55.44;99920.95;126558;1090;114298;-79
2021/07/25 04:13:53;;;;;;;15.67;11.73;;;;;;;20.70;55.03;99926.00;126815;1090;102984;-79
2021/07/25 04:16:40;;;;;;;;;;;;;;;20.76;54.71;99930.81;126608;1090;114516;-78
2021/07/25 04:19:28;;;;;;;18.73;12.17;;;;;;;20.80;54.82;99924.29;126756;1090;102940;-78
2021/07/25 04:22:15;;;;;;;;;;;;;;;20.85;55.03;99922.14;126741;1089;114428;-78
2021/07/25 04:25:05;;;;;;;14.80;12.15;;;;;;;20.90;54.61;99921.77;126825;1088;102965;-78
2021/07/25 04:27:53;;;;;;;14.33;12.23;;;;;;;20.92;55.27;99919.83;126592;1090;114624;-78
2021/07/25 04:30:42;;;;;;;15.00;11.83;;;;;;;20.93;54.68;99919.70;126621;1090;102821;-79
2021/07/25 04:33:32;;;;;;;16.90;12.17;;;;;;;20.97;54.65;99926.44;126577;1088;114417;-79
2021/07/25 04:36:27;;;;;;;14.50;12.13;;;;;;;21.02;54.74;99924.28;126683;1089;101927;-79
2021/07/25 04:39:15;;;;;;;15.37;11.80;;;;;;;21.09;54.77;99927.27;126470;1090;114644;-79
2021/07/25 04:42:04;;;;;;;14.93;11.70;;;;;;;21.16;54.39;99924.95;126852;1089;102874;-79
2021/07/25 04:45:05;;;;;;;15.50;11.70;;;;;;;21.18;54.64;99936.28;126794;1088;102945;-79
2021/07/25 04:48:23;;;;;;;14.10;12.10;;;;;;;21.23;54.19;99928.81;126580;1090;114300;-79
2021/07/25 04:51:14;;;;;;;17.10;12.27;;;;;;;21.32;54.65;99926.27;126797;1089;102988;-79
2021/07/25 04:54:15;;;;;;;13.17;11.77;;;;;;;21.37;54.60;99925.91;126680;1090;114085;-80
2021/07/25 04:57:06;;;;;;;15.27;12.07;;;;;;;21.44;53.86;99926.23;126635;1090;102885;-79
2021/07/25 04:59:58;;;;;;;14.25;11.40;;;;;;;21.54;54.09;99933.30;126624;1088;114486;-79
2021/07/25 05:02:48;;;;;;;16.00;11.93;;;;;;;21.65;53.83;99927.11;126720;1089;100426;-79
2021/07/25 05:05:37;;;;;;;17.00;11.37;;;;;;;21.75;54.23;99937.82;126605;1090;114593;-79
2021/07/25 05:08:25;;;;;;;13.30;10.60;;;;;;;21.82;53.80;99937.17;126704;1089;102882;-79
2021/07/25 05:11:21;;;;;;;15.90;11.83;;;;;;;21.93;53.45;99936.28;126782;1090;114371;-79
2021/07/25 05:14:19;;;;;;;15.93;12.17;;;;;;;22.06;53.73;99947.56;126805;1089;103014;-79
2021/07/25 05:17:26;;;;;;;15.07;11.97;;;;;;;22.21;53.23;99946.27;126678;1090;114474;-79
2021/07/25 05:20:17;;;;;;;14.03;11.67;;;;;;;22.41;53.35;99939.23;126846;1088;102982;-79
2021/07/25 05:23:20;;;;;;;15.67;11.63;;;;;;;22.63;53.26;99934.75;126661;1089;114412;-80
2021/07/25 05:26:12;;;;;;;13.27;11.13;;;;;;;22.78;52.16;99936.88;126817;1090;102891;-80
2021/07/25 05:29:02;;;;;;;13.57;11.20;;;;;;;22.95;51.90;99946.06;126491;1090;113198;-79
2021/07/25 05:31:50;;;;;;;14.90;10.90;;;;;;;23.22;51.75;99934.80;126702;1089;102960;-80
2021/07/25 05:34:37;;;;;;;11.67;10.47;;;;;;;24.21;51.14;99933.66;126537;1088;114431;-80
2021/07/25 05:37:25;;;;;;;11.27;9.20;;;;;;;25.72;48.78;99921.67;126717;1088;102861;-80
2021/07/25 05:40:15;;;;;;;10.53;9.30;;;;;;;27.33;46.86;99924.56;126653;1088;113624;-80
2021/07/25 05:43:02;;;;;;;14.77;10.40;;;;;;;28.81;42.72;99927.77;126791;1090;102852;-80
2021/07/25 05:45:50;;;;;;;12.30;9.97;;;;;;;29.77;40.73;99919.32;126740;1089;113366;-80
2021/07/25 05:48:38;;;;;;;12.63;9.47;;;;;;;30.62;38.57;99913.64;126823;1090;103374;-80
2021/07/25 05:51:26;;;;;;;11.73;8.90;;;;;;;31.15;37.89;99916.14;126742;1090;102964;-81
2021/07/25 05:54:13;;;;;;;13.23;9.40;;;;;;;31.72;36.54;99910.77;126738;1090;114255;-81
2021/07/25 05:57:01;;;;;;;12.23;8.77;;;;;;;32.11;36.01;99922.89;126631;1090;102862;-81
2021/07/25 05:59:49;;;;;;;9.90;8.20;;;;;;;32.91;36.03;99914.27;126687;1090;114180;-80
2021/07/25 06:03:00;;;;;;;12.20;8.10;;;;;;;33.58;33.94;99910.73;126706;1089;103351;-81
2021/07/25 06:05:48;;;;;;;10.70;8.57;;;;;;;34.24;33.14;99909.88;126586;1090;114149;-78
2021/07/25 06:08:37;;;;;;;8.97;8.07;;;;;;;34.66;33.13;99916.69;126626;1090;103406;-79
2021/07/25 06:11:25;;;;;;;9.00;8.10;;;;;;;35.52;32.45;99915.44;126564;1088;114113;-79
2021/07/25 06:14:13;;;;;;;11.23;9.00;;;;;;;36.18;31.12;99917.63;126672;1090;102945;-79
2021/07/25 06:17:00;;;;;;;10.33;8.63;;;;;;;36.67;28.93;99922.14;126505;1090;113173;-79
2021/07/25 06:19:49;;;;;;;9.00;8.00;;;;;;;36.90;29.18;99913.30;126782;1090;102936;-78
2021/07/25 06:22:41;;;;;;;10.30;8.40;;;;;;;37.09;28.63;99911.38;126567;1090;113072;-78
2021/07/25 06:25:31;;;;;;;11.77;8.70;;;;;;;37.29;27.34;99901.08;126801;1088;102867;-78
2021/07/25 06:28:19;;;;;;;11.35;8.60;;;;;;;37.41;26.90;99901.95;126523;1089;113224;-79
2021/07/25 06:31:06;;;;;;;10.07;7.63;;;;;;;37.29;26.71;99911.95;126665;1089;102859;-80
2021/07/25 06:33:55;;;;;;;10.03;8.70;;;;;;;37.43;26.94;99904.43;126545;1089;114459;-80
2021/07/25 06:36:42;;;;;;;9.57;8.47;;;;;;;37.97;27.18;99910.69;126699;1090;103128;-80
2021/07/25 06:39:29;;;;;;;11.03;8.77;;;;;;;38.43;25.91;99915.32;126668;1088;103004;-79
2021/07/25 06:42:18;;;;;;;8.57;7.67;;;;;;;38.88;26.13;99911.91;126619;1090;113220;-79
2021/07/25 06:45:05;;;;;;;9.47;7.27;;;;;;;39.49;25.68;99905.69;126888;1090;102983;-80
2021/07/25 06:47:54;;;;;;;11.33;8.40;;;;;;;39.81;24.69;99913.34;126542;1088;113910;-78
2021/07/25 06:50:41;;;;;;;9.27;7.40;;;;;;;40.20;24.30;99905.22;126798;1090;102862;-79
2021/07/25 06:53:32;;;;;;;9.93;8.10;;;;;;;40.50;23.87;99897.47;126600;1090;114256;-80
2021/07/25 06:56:20;;;;;;;12.07;7.47;;;;;;;40.51;23.18;99906.50;126848;1089;102883;-78
2021/07/25 06:59:09;;;;;;;10.60;7.83;;;;;;;40.52;22.79;99908.97;126488;1090;113281;-79
2021/07/25 07:01:57;;;;;;;12.25;7.20;;;;;;;40.60;22.52;99911.28;126644;1089;103319;-79
2021/07/25 07:04:45;;;;;;;9.00;7.65;;;;;;;40.90;22.34;99918.20;126519;1090;114322;-79
2021/07/25 07:07:35;;;;;;;8.13;7.33;;;;;;;41.02;22.55;99910.69;126661;1090;103036;-79
2021/07/25 07:10:26;;;;;;;8.97;7.83;;;;;;;40.94;22.52;99909.25;126554;1090;114071;-78
2021/07/25 07:13:17;;;;;;;10.07;7.80;;;;;;;40.89;21.85;99914.64;126635;1090;102894;-78
2021/07/25 07:16:05;;;;;;;8.30;7.03;;;;;;;40.95;22.40;99907.34;126586;1090;113354;-78
2021/07/25 07:18:53;;;;;;;8.87;7.27;;;;;;;41.37;21.67;99910.25;126694;1089;101217;-80
2021/07/25 07:21:41;;;;;;;9.97;6.67;;;;;;;41.54;22.20;99916.43;126716;1090;102715;-79
2021/07/25 07:24:29;;;;;;;7.63;6.80;;;;;;;41.81;22.32;99905.44;126558;1090;113886;-79
2021/07/25 07:27:16;;;;;;;7.67;6.93;;;;;;;42.15;21.86;99910.63;126682;1090;102868;-79
2021/07/25 07:30:05;;;;;;;9.63;6.97;;;;;;;42.38;21.36;99910.22;126556;1090;114670;-80
2021/07/25 07:32:54;;;;;;;8.67;7.50;;;;;;;42.61;20.82;99903.49;126882;1090;102880;-79
2021/07/25 07:35:43;;;;;;;9.07;6.90;;;;;;;42.49;20.33;99906.45;126585;1090;113168;-80
2021/07/25 07:38:31;;;;;;;7.87;6.87;;;;;;;42.50;20.90;99910.84;126727;1089;102902;-79
2021/07/25 07:41:19;;;;;;;10.90;6.93;;;;;;;42.86;20.97;99910.97;126579;1088;114267;-80
2021/07/25 07:44:07;;;;;;;11.17;7.27;;;;;;;43.15;19.40;99921.52;126730;1088;102647;-79
2021/07/25 07:46:56;;;;;;;11.93;7.73;;;;;;;42.36;19.72;99912.38;126573;1090;114326;-80
2021/07/25 07:49:44;;;;;;;8.57;6.93;;;;;;;41.73;20.14;99902.38;126832;1089;101103;-79
2021/07/25 07:52:31;;;;;;;8.60;6.80;;;;;;;41.39;20.97;99899.04;126554;1089;114241;-79
2021/07/25 07:55:19;;;;;;;9.60;6.85;;;;;;;40.99;20.46;99909.30;126719;1089;101165;-79
2021/07/25 07:58:08;;;;;;;7.83;7.03;;;;;;;40.91;21.06;99909.74;126760;1090;102918;-80
2021/07/25 08:00:56;;;;;;;8.03;7.23;;;;;;;40.88;21.06;99915.73;126594;1090;102868;-79
2021/07/25 08:03:44;;;;;;;8.77;7.33;;;;;;;40.84;21.07;99911.03;126719;1088;102877;-79
2021/07/25 08:06:32;;;;;;;10.17;8.13;;;;;;;40.37;21.00;99909.56;126584;1090;112897;-79
2021/07/25 08:09:20;;;;;;;8.63;7.47;;;;;;;39.72;21.85;99910.22;126642;1090;102837;-80
2021/07/25 08:12:08;;;;;;;8.87;7.77;;;;;;;39.55;22.02;99915.67;126848;1090;114245;-81
2021/07/25 08:14:56;;;;;;;9.20;7.10;;;;;;;39.39;22.44;99910.16;126859;1090;102857;-80
2021/07/25 08:17:45;;;;;;;8.33;7.00;;;;;;;39.34;22.29;99919.09;126605;1089;114002;-81
2021/07/25 08:20:33;;;;;;;10.40;7.40;;;;;;;39.43;22.29;99924.97;126766;1090;101115;-81
2021/07/25 08:23:21;;;;;;;10.30;7.10;;;;;;;39.21;22.26;99924.84;126735;1090;114031;-81
2021/07/25 08:26:08;;;;;;;8.53;7.07;;;;;;;39.02;22.74;99915.18;126656;1090;102917;-79
2021/07/25 08:28:56;;;;;;;7.73;6.93;;;;;;;38.94;22.75;99914.48;126618;1089;114279;-78
2021/07/25 08:31:44;;;;;;;12.20;7.40;;;;;;;38.93;22.78;99906.55;126610;1090;102859;-78
2021/07/25 08:34:33;;;;;;;9.83;7.27;;;;;;;38.77;23.28;99908.13;126638;1090;102857;-78
2021/07/25 08:37:20;;;;;;;9.57;7.73;;;;;;;39.08;23.22;99917.78;126615;1089;102730;-77
2021/07/25 08:40:14;;;;;;;11.27;7.27;;;;;;;38.72;23.02;99910.77;126749;1090;102878;-77
2021/07/25 08:43:06;;;;;;;7.90;7.10;;;;;;;38.56;23.53;99914.20;126476;1090;114348;-79
2021/07/25 08:45:54;;;;;;;8.20;7.07;;;;;;;38.67;23.89;99918.84;126638;1089;102871;-74
2021/07/25 08:48:51;;;;;;;10.67;7.10;;;;;;;38.79;23.72;99910.65;126623;1088;112841;-82
2021/07/25 08:51:42;;;;;;;8.30;7.50;;;;;;;38.57;23.09;99908.52;126697;1090;102468;-80
2021/07/25 08:54:34;;;;;;;8.73;7.00;;;;;;;38.16;23.78;99909.50;126536;1090;114775;-76
2021/07/25 08:57:25;;;;;;;9.40;7.10;;;;;;;37.92;24.25;99924.19;126643;1089;103078;-76
2021/07/25 09:00:21;;;;;;;7.97;6.73;;;;;;;37.91;24.88;99908.92;126559;1090;114188;-79
2021/07/25 09:03:10;;;;;;;9.87;7.53;;;;;;;38.23;24.41;99923.84;126641;1089;102820;-79
2021/07/25 09:06:03;;;;;;;12.03;6.73;;;;;;;38.00;24.31;99912.94;126599;1090;112972;-79
2021/07/25 09:08:58;;;;;;;9.03;6.73;;;;;;;37.77;24.64;99906.42;126563;1090;103015;-79
2021/07/25 09:11:47;;;;;;;7.83;6.40;;;;;;;37.37;24.38;99917.08;126870;1090;114236;-79
2021/07/25 09:14:43;;;;;;;11.00;6.87;;;;;;;36.86;25.09;99906.67;126773;1090;102879;-79
2021/07/25 09:17:31;;;;;;;8.80;6.97;;;;;;;36.49;25.61;99900.41;126611;1090;114251;-80
2021/07/25 09:20:28;;;;;;;9.80;7.70;;;;;;;36.50;25.91;99910.22;126863;1089;102843;-80
2021/07/25 09:23:18;;;;;;;9.57;7.37;;;;;;;36.07;25.60;99929.20;126511;1090;114390;-79
2021/07/25 09:26:07;;;;;;;12.43;7.90;;;;;;;35.66;26.54;99908.87;126801;1087;102937;-79
2021/07/25 09:29:21;;;;;;;11.67;7.30;;;;;;;35.38;26.74;99899.28;126728;1090;102762;-79
2021/07/25 09:32:14;;;;;;;10.37;6.97;;;;;;;35.23;27.40;99909.56;126849;1090;102868;-79
2021/07/25 09:35:02;;;;;;;9.93;7.07;;;;;;;35.30;27.10;99907.63;126696;1088;102463;-79
2021/07/25 09:37:51;;;;;;;8.27;7.37;;;;;;;35.39;27.19;99908.24;126684;1090;112699;-80
2021/07/25 09:40:44;;;;;;;7.73;6.87;;;;;;;35.63;27.03;99920.16;126776;1089;102964;-80
2021/07/25 09:43:32;;;;;;;11.93;7.37;;;;;;;35.61;27.29;99904.11;126637;1090;113987;-80
2021/07/25 09:46:20;;;;;;;8.03;6.47;;;;;;;35.55;27.68;99906.85;126888;1090;102884;-80
2021/07/25 09:49:08;;;;;;;9.13;6.90;;;;;;;35.70;27.08;99907.36;126676;1090;114111;-79
2021/07/25 09:52:07;;;;;;;7.93;6.60;;;;;;;35.67;27.09;99915.95;126836;1089;102855;-79
2021/07/25 09:54:56;;;;;;;7.40;6.70;;;;;;;35.80;27.37;99910.42;126531;1090;112885;-79
2021/07/25 09:57:56;;;;;;;8.13;6.37;;;;;;;36.01;27.08;99909.22;126647;1090;102856;-80
2021/07/25 10:00:45;;;;;;;7.97;6.53;;;;;;;36.05;27.05;99909.59;126607;1089;113551;-80
2021/07/25 10:03:33;;;;;;;7.43;6.60;;;;;;;35.97;27.27;99908.84;126780;1089;102886;-80
2021/07/25 10:06:23;;;;;;;8.67;6.30;;;;;;;35.85;26.73;99916.04;126732;1089;114195;-79
2021/07/25 10:09:15;;;;;;;10.60;6.40;;;;;;;35.67;26.77;99922.20;126657;1090;102950;-79
2021/07/25 10:12:03;;;;;;;9.67;7.10;;;;;;;35.45;26.42;99922.80;126505;1089;114637;-79
2021/07/25 10:14:51;;;;;;;10.90;6.40;;;;;;;35.04;26.92;99907.80;126675;1089;102846;-79
2021/07/25 10:17:42;;;;;;;9.60;7.83;;;;;;;34.68;27.54;99914.59;126533;1090;114283;-78
2021/07/25 10:20:31;;;;;;;9.10;7.70;;;;;;;34.41;27.78;99915.70;126633;1090;103023;-79
2021/07/25 10:23:25;;;;;;;9.80;7.77;;;;;;;34.18;28.36;99916.14;126719;1090;102895;-79
2021/07/25 10:26:13;;;;;;;9.00;7.33;;;;;;;34.08;29.29;99913.02;126686;1089;103300;-79
2021/07/25 10:29:01;;;;;;;7.75;6.60;;;;;;;34.10;29.23;99911.77;126703;1090;102860;-80
2021/07/25 10:31:52;;;;;;;11.70;6.53;;;;;;;34.01;29.29;99901.38;126740;1090;112828;-79
2021/07/25 10:34:40;;;;;;;9.37;7.20;;;;;;;34.11;29.06;99901.77;126737;1090;102872;-79
2021/07/25 10:37:29;;;;;;;10.13;7.33;;;;;;;34.02;29.18;99908.45;126655;1088;114323;-79
2021/07/25 10:40:18;;;;;;;12.07;7.53;;;;;;;34.01;29.88;99891.39;126688;1090;103007;-79
2021/07/25 10:43:08;;;;;;;7.97;7.10;;;;;;;34.22;29.24;99899.26;126606;1090;113272;-79
2021/07/25 10:46:17;;;;;;;8.40;6.70;;;;;;;34.28;28.87;99896.74;126867;1090;102993;-79
2021/07/25 10:49:09;;;;;;;8.63;7.20;;;;;;;34.21;29.15;99881.36;126755;1090;114037;-79
2021/07/25 10:51:59;;;;;;;8.77;7.00;;;;;;;34.00;28.42;99894.31;126943;1088;102901;-79
2021/07/25 10:54:48;;;;;;;7.70;6.90;;;;;;;33.74;28.91;99889.70;126626;1089;114198;-80
2021/07/25 10:58:02;;;;;;;9.10;6.97;;;;;;;33.61;29.58;99885.97;126775;1090;103003;-80
2021/07/25 11:00:55;;;;;;;7.97;6.90;;;;;;;33.83;29.39;99888.45;126864;1089;114087;-79
2021/07/25 11:03:43;;;;;;;7.93;7.10;;;;;;;33.79;29.77;99881.81;126935;1089;102859;-79
2021/07/25 11:06:31;;;;;;;8.57;6.93;;;;;;;33.68;30.09;99885.13;126787;1090;114256;-79
2021/07/25 11:09:53;;;;;;;9.53;7.17;;;;;;;33.76;30.03;99883.06;126966;1090;103192;-80
2021/07/25 11:12:50;;;;;;;10.00;7.17;;;;;;;33.70;29.76;99889.28;126890;1089;112869;-79
2021/07/25 11:15:39;;;;;;;8.65;7.03;;;;;;;33.40;29.65;99890.74;126810;1090;102878;-80
2021/07/25 11:18:28;;;;;;;8.07;7.00;;;;;;;33.29;29.23;99892.97;126691;1090;114254;-79
2021/07/25 11:21:30;;;;;;;8.93;7.03;;;;;;;33.03;29.83;99885.61;126879;1090;102858;-79
2021/07/25 11:24:18;;;;;;;9.40;7.53;;;;;;;32.93;30.01;99887.89;126601;1090;114112;-79
2021/07/25 11:27:08;;;;;;;11.60;7.70;;;;;;;32.75;29.74;99880.31;126865;1089;102884;-79
2021/07/25 11:29:56;;;;;;;8.73;6.90;;;;;;;32.59;29.48;99880.66;126576;1090;114524;-79
2021/07/25 11:32:43;;;;;;;11.50;7.50;;;;;;;32.40;29.26;99894.89;126719;1090;102939;-80
2021/07/25 11:35:31;;;;;;;8.23;7.10;;;;;;;32.19;29.76;99895.77;126661;1090;102969;-80
2021/07/25 11:38:19;;;;;;;8.30;7.13;;;;;;;32.15;30.08;99884.55;126595;1090;113817;-79
2021/07/25 11:41:09;;;;;;;7.87;6.93;;;;;;;32.08;30.80;99877.42;126906;1089;102877;-79
2021/07/25 11:44:01;;;;;;;9.50;7.53;;;;;;;32.07;31.09;99886.55;126811;1090;113933;-80
2021/07/25 11:46:49;;;;;;;12.63;8.10;;;;;;;32.16;30.47;99891.61;126930;1089;103012;-80
2021/07/25 11:49:40;;;;;;;8.23;7.43;;;;;;;31.99;30.76;99889.41;126699;1089;114833;-80
2021/07/25 11:52:28;;;;;;;9.97;8.17;;;;;;;31.87;31.06;99875.63;126841;1089;102955;-80
2021/07/25 11:55:27;;;;;;;8.20;7.40;;;;;;;31.96;31.31;99874.46;126601;1089;113057;-79
2021/07/25 11:58:15;;;;;;;10.33;7.63;;;;;;;32.06;30.55;99879.48;126711;1090;102903;-78
2021/07/25 12:01:15;;;;;;;10.33;7.83;;;;;;;31.95;29.90;99901.59;126733;1089;114056;-79
2021/07/25 12:04:35;;;;;;;9.20;8.03;;;;;;;31.80;30.69;99880.98;126922;1089;102865;-79
2021/07/25 12:07:32;;;;;;;8.03;7.20;;;;;;;31.68;31.27;99866.31;126681;1089;113035;-79
2021/07/25 12:10:31;;;;;;;9.43;7.80;;;;;;;31.73;31.69;99866.59;126912;1089;102869;-79
2021/07/25 12:13:20;;;;;;;11.43;7.67;;;;;;;31.77;31.54;99870.55;126603;1090;114201;-79
2021/07/25 12:16:08;;;;;;;10.33;7.77;;;;;;;31.66;31.65;99881.86;126527;1090;102948;-79
2021/07/25 12:18:56;;;;;;;10.50;7.90;;;;;;;31.50;31.87;99863.26;126511;1089;113191;-79
2021/07/25 12:21:46;;;;;;;10.63;7.67;;;;;;;31.50;32.12;99879.43;126674;1089;102871;-79
2021/07/25 12:24:42;;;;;;;10.37;7.50;;;;;;;31.50;32.09;99864.09;126589;1090;114246;-79
2021/07/25 12:27:32;;;;;;;9.40;7.70;;;;;;;31.56;31.68;99865.17;126664;1090;102889;-79
2021/07/25 12:30:20;;;;;;;8.97;7.23;;;;;;;31.52;31.96;99855.81;126559;1090;114280;-79
2021/07/25 12:33:10;;;;;;;8.97;7.10;;;;;;;31.69;31.53;99867.15;126802;1089;102651;-80
2021/07/25 12:36:11;;;;;;;7.73;6.93;;;;;;;31.71;31.39;99857.00;126676;1090;114375;-80
2021/07/25 12:39:19;;;;;;;7.37;6.47;;;;;;;31.83;31.37;99853.61;126804;1090;102847;-80
2021/07/25 12:42:07;;;;;;;8.40;7.10;;;;;;;31.96;31.10;99858.27;126662;1089;114243;-80
2021/07/25 12:44:55;;;;;;;9.57;6.77;;;;;;;31.97;31.23;99851.02;126807;1090;102846;-80
2021/07/25 12:47:43;;;;;;;9.70;7.20;;;;;;;31.87;31.26;99851.34;126670;1089;102843;-80
2021/07/25 12:54:03;;;;;;;9.90;6.60;;;;;;;31.96;30.90;99839.39;126892;1089;101804;-79
2021/07/25 12:56:54;;;;;;;9.33;6.77;;;;;;;32.06;30.99;99831.77;126688;1090;113801;-80
2021/07/25 12:59:42;;;;;;;8.70;7.03;;;;;;;32.15;29.29;99835.98;126798;1090;102993;-80